Estación de Alto del Carmen

Ultimos registro cada 15 minutos 70
Estación Fecha / Hora Temperatura Humedad Lluvia Velocidad Dirección Radiación Presion
70 Alto del Carmen 05-05-2026 17:15 22,3 38 0 1,8 327 37 1011,6
69 Alto del Carmen 05-05-2026 17:00 22,8 35 0 2,2 339 93 1011,6
68 Alto del Carmen 05-05-2026 16:45 22,9 36 0 1,8 353 81 1011,5
67 Alto del Carmen 05-05-2026 16:30 23,2 36 0 1,8 329 158 1011,3
66 Alto del Carmen 05-05-2026 16:15 23,8 35 0 1,8 333 146 1011,3
65 Alto del Carmen 05-05-2026 16:00 23,7 35 0 3,6 288 163 1011,5
64 Alto del Carmen 05-05-2026 15:45 23,6 37 0 2,7 296 155 1011,7
63 Alto del Carmen 05-05-2026 15:30 23,8 37 0 2,2 330 185 1011,5
62 Alto del Carmen 05-05-2026 15:15 24,1 36 0 2,7 331 179 1011,4
61 Alto del Carmen 05-05-2026 15:00 24,3 35 0 2,7 315 209 1011,4
60 Alto del Carmen 05-05-2026 14:45 23,9 38 0 0,4 294 301 1011,6
59 Alto del Carmen 05-05-2026 14:30 24,3 36 0 3,1 289 387 1011,8
58 Alto del Carmen 05-05-2026 14:15 24,4 37 0 3,6 312 439 1011,8
57 Alto del Carmen 05-05-2026 14:00 24,8 36 0 2,7 300 571 1011,9
56 Alto del Carmen 05-05-2026 13:45 24,7 36 0 2,7 312 445 1011,8
55 Alto del Carmen 05-05-2026 13:30 24,2 35 0 2,7 313 668 1011,8
54 Alto del Carmen 05-05-2026 13:15 23,7 36 0 3,1 286 561 1012
53 Alto del Carmen 05-05-2026 13:00 23,3 38 0 3,6 305 369 1012,2
52 Alto del Carmen 05-05-2026 12:45 24,3 35 0 3,6 308 343 1012,2
51 Alto del Carmen 05-05-2026 12:30 23,9 37 0 3,6 282 526 1012,3
50 Alto del Carmen 05-05-2026 12:15 23,1 37 0 2,2 296 383 1012,4
49 Alto del Carmen 05-05-2026 12:00 22 40 0 0,9 327 376 1012,2
48 Alto del Carmen 05-05-2026 11:45 21,3 41 0 0,9 327 410 1012,5
47 Alto del Carmen 05-05-2026 11:30 20,3 45 0 1,8 326 476 1012,6
46 Alto del Carmen 05-05-2026 11:15 19,7 49 0 2,7 318 385 1012,7
45 Alto del Carmen 05-05-2026 11:00 19 50 0 0,9 336 422 1012,9
44 Alto del Carmen 05-05-2026 10:45 17,8 54 0 0,9 342 482 1013,2
43 Alto del Carmen 05-05-2026 10:30 16,3 62 0 0 342 459 1013,2
42 Alto del Carmen 05-05-2026 10:15 14,1 74 0 0,4 342 346 1013,6
41 Alto del Carmen 05-05-2026 10:00 10,7 92 0 0,9 342 385 1013,2
40 Alto del Carmen 05-05-2026 09:45 8,2 89 0 0 342 95 1013,1
39 Alto del Carmen 05-05-2026 09:30 7,7 89 0 0 342 23 1013,1
38 Alto del Carmen 05-05-2026 09:15 7,5 88 0 0 342 21 1013,1
37 Alto del Carmen 05-05-2026 09:00 7,6 89 0 0 342 19 1013,1
36 Alto del Carmen 05-05-2026 08:45 6,8 87 0 0 342 18 1013,3
35 Alto del Carmen 05-05-2026 08:30 6,9 88 0 0 342 16 1013,5
34 Alto del Carmen 05-05-2026 08:15 6,7 88 0 0 342 21 1013,3
33 Alto del Carmen 05-05-2026 08:00 6,2 86 0 0 342 12 1013,1
32 Alto del Carmen 05-05-2026 07:45 6,2 85 0 0 342 9 1012,8
31 Alto del Carmen 05-05-2026 07:30 6,5 85 0 0 342 5 1012,6
30 Alto del Carmen 05-05-2026 07:15 6,6 86 0 0 342 0 1012,4
29 Alto del Carmen 05-05-2026 07:00 6,4 84 0 0 342 0 1012,1
28 Alto del Carmen 05-05-2026 06:45 6,8 86 0 0 342 0 1011,9
27 Alto del Carmen 05-05-2026 06:30 6,6 84 0 0 342 0 1011,5
26 Alto del Carmen 05-05-2026 06:15 6,8 84 0 0 342 0 1011,2
25 Alto del Carmen 05-05-2026 06:00 7,2 84 0 0,4 342 0 1010,9
24 Alto del Carmen 05-05-2026 05:45 7 85 0 0 342 0 1010,9
23 Alto del Carmen 05-05-2026 05:30 6,4 85 0 0 342 0 1010,8
22 Alto del Carmen 05-05-2026 05:15 5,7 81 0 0 341 0 1010,4
21 Alto del Carmen 05-05-2026 05:00 6,3 81 0 0 341 0 1010,2
20 Alto del Carmen 05-05-2026 04:45 6,5 83 0 0,9 338 0 1010,2
19 Alto del Carmen 05-05-2026 04:30 6,7 80 0 0,4 337 0 1010,2
18 Alto del Carmen 05-05-2026 04:15 7,2 81 0 0 337 0 1010,4
17 Alto del Carmen 05-05-2026 04:00 7,2 82 0 0 338 0 1010,3
16 Alto del Carmen 05-05-2026 03:45 7,3 80 0 0 338 0 1010,5
15 Alto del Carmen 05-05-2026 03:30 7,8 82 0 0 338 0 1010,4
14 Alto del Carmen 05-05-2026 03:15 7,9 81 0 0,4 337 0 1010,7
13 Alto del Carmen 05-05-2026 03:00 8,1 82 0 0 336 0 1010,8
12 Alto del Carmen 05-05-2026 02:45 7,7 83 0 0,9 336 0 1010,9
11 Alto del Carmen 05-05-2026 02:30 7,7 81 0 0 336 0 1011,1
10 Alto del Carmen 05-05-2026 02:15 8,1 81 0 0 336 0 1011,2
9 Alto del Carmen 05-05-2026 02:00 8,2 81 0 0 336 0 1011
8 Alto del Carmen 05-05-2026 01:45 8,4 80 0 0 336 0 1011,2
7 Alto del Carmen 05-05-2026 01:30 8,8 79 0 0 336 0 1011,3
6 Alto del Carmen 05-05-2026 01:15 8,9 81 0 0 336 0 1011,5
5 Alto del Carmen 05-05-2026 01:00 9 79 0 0 335 0 1011,6
4 Alto del Carmen 05-05-2026 00:45 9,4 79 0 0 335 0 1011,5
3 Alto del Carmen 05-05-2026 00:30 9,5 79 0 0 335 0 1011,6
2 Alto del Carmen 05-05-2026 00:15 10,1 77 0 0 335 0 1011,7
1 Alto del Carmen 05-05-2026 00:00 10,3 77 0 0 335 0 1011,8